createdAt,value
2019-03-09T00:00:43.796Z,62.50
2019-03-09T00:03:18.289Z,68.79
2019-03-09T00:05:51.433Z,61.33
2019-03-09T00:08:24.501Z,54.46
2019-03-09T00:10:57.812Z,48.48
2019-03-09T00:13:30.781Z,48.89
2019-03-09T00:16:03.960Z,49.91
2019-03-09T00:18:36.892Z,51.16
2019-03-09T00:21:10.254Z,52.43
2019-03-09T00:24:06.285Z,53.27
2019-03-09T00:26:47.888Z,54.81
2019-03-09T00:29:32.397Z,55.69
2019-03-09T00:32:11.723Z,56.67
2019-03-09T00:34:47.320Z,57.66
2019-03-09T00:37:27.962Z,58.64
2019-03-09T00:40:04.298Z,59.20
2019-03-09T00:42:39.344Z,60.02
2019-03-09T00:45:15.904Z,60.85
2019-03-09T00:47:48.806Z,62.37
2019-03-09T00:50:21.738Z,68.58
2019-03-09T00:52:58.073Z,61.73
2019-03-09T00:55:31.314Z,53.65
2019-03-09T00:58:05.135Z,53.25
2019-03-09T01:00:43.051Z,53.90
2019-03-09T01:03:17.346Z,54.62
2019-03-09T01:05:50.743Z,55.61
2019-03-09T01:08:23.787Z,56.37
2019-03-09T01:10:58.180Z,57.05
2019-03-09T01:13:32.700Z,57.77
2019-03-09T01:16:08.446Z,59.09
2019-03-09T01:18:44.343Z,60.10
2019-03-09T01:21:19.377Z,61.28
2019-03-09T01:23:59.548Z,61.83
2019-03-09T01:26:35.871Z,68.02
2019-03-09T01:29:11.028Z,61.84
2019-03-09T01:31:45.753Z,54.31
2019-03-09T01:34:18.928Z,48.84
2019-03-09T01:36:54.228Z,49.06
2019-03-09T01:39:31.189Z,50.22
2019-03-09T01:42:04.102Z,51.25
2019-03-09T01:44:38.481Z,52.44
2019-03-09T01:47:20.531Z,53.27
2019-03-09T01:49:53.327Z,54.21
2019-03-09T01:52:26.273Z,55.49
2019-03-09T01:55:08.393Z,56.33
2019-03-09T01:57:44.581Z,57.54
2019-03-09T02:00:18.696Z,58.31
2019-03-09T02:02:51.706Z,59.19
2019-03-09T02:05:28.871Z,60.11
2019-03-09T02:08:01.832Z,61.23
2019-03-09T02:10:36.579Z,61.99
2019-03-09T02:13:12.372Z,68.40
2019-03-09T02:15:45.320Z,61.54
2019-03-09T02:18:25.377Z,54.76
2019-03-09T02:21:05.896Z,48.43
2019-03-09T02:23:38.803Z,48.85
2019-03-09T02:26:11.738Z,49.90
2019-03-09T02:28:44.642Z,51.04
2019-03-09T02:31:17.498Z,52.11
2019-03-09T02:33:50.388Z,53.39
2019-03-09T02:36:23.509Z,54.34
2019-03-09T02:39:00.591Z,55.34
2019-03-09T02:41:35.112Z,56.61
2019-03-09T02:44:08.016Z,57.76
2019-03-09T02:46:40.764Z,58.84
2019-03-09T02:49:13.574Z,60.41
2019-03-09T02:51:46.669Z,60.53
2019-03-09T02:54:19.482Z,61.45
2019-03-09T02:56:52.280Z,62.16
2019-03-09T02:59:25.601Z,69.37
2019-03-09T03:02:13.913Z,62.42
2019-03-09T03:04:46.985Z,53.91
2019-03-09T03:07:19.747Z,48.76
2019-03-09T03:09:54.194Z,49.06
2019-03-09T03:12:27.064Z,50.55
2019-03-09T03:15:00.079Z,51.63
2019-03-09T03:17:33.169Z,52.82
2019-03-09T03:20:07.370Z,53.78
2019-03-09T03:22:40.292Z,55.01
2019-03-09T03:25:13.447Z,56.21
2019-03-09T03:27:46.539Z,57.30
2019-03-09T03:30:19.682Z,58.28
2019-03-09T03:32:54.272Z,58.99
2019-03-09T03:35:27.292Z,59.89
2019-03-09T03:38:00.049Z,60.83
2019-03-09T03:40:33.218Z,61.98
2019-03-09T03:43:06.176Z,67.84
2019-03-09T03:45:44.605Z,61.32
2019-03-09T03:48:17.391Z,54.29
2019-03-09T03:50:50.214Z,48.68
2019-03-09T03:53:23.099Z,49.25
2019-03-09T03:55:56.251Z,50.32
2019-03-09T03:58:29.069Z,51.36
2019-03-09T04:01:01.965Z,52.49
2019-03-09T04:03:34.936Z,53.54
2019-03-09T04:06:08.027Z,54.56
2019-03-09T04:08:41.455Z,55.64
2019-03-09T04:11:14.407Z,56.94
2019-03-09T04:13:47.738Z,57.97
2019-03-09T04:16:20.564Z,59.29
2019-03-09T04:18:53.579Z,59.59
2019-03-09T04:21:26.478Z,60.45
2019-03-09T04:23:59.419Z,61.28
2019-03-09T04:26:32.615Z,62.03
2019-03-09T04:29:06.398Z,63.07
2019-03-09T04:31:39.305Z,66.86
2019-03-09T04:34:12.215Z,60.58
2019-03-09T04:36:45.233Z,52.97
2019-03-09T04:39:18.184Z,49.83
2019-03-09T04:41:55.208Z,50.38
2019-03-09T04:44:28.166Z,51.41
2019-03-09T04:47:01.717Z,52.34
2019-03-09T04:49:34.680Z,53.55
2019-03-09T04:52:07.604Z,54.53
2019-03-09T04:54:40.527Z,55.20
2019-03-09T04:57:13.255Z,56.84
2019-03-09T04:59:46.224Z,57.54
2019-03-09T05:02:19.169Z,59.79
2019-03-09T05:04:54.061Z,60.60
2019-03-09T05:07:42.631Z,61.48
2019-03-09T05:10:30.018Z,62.69
2019-03-09T05:13:10.737Z,67.20
2019-03-09T05:15:43.543Z,61.47
2019-03-09T05:18:16.495Z,53.93
2019-03-09T05:20:49.430Z,50.03
2019-03-09T05:23:22.292Z,50.78
2019-03-09T05:25:55.346Z,52.12
2019-03-09T05:28:28.285Z,53.05
2019-03-09T05:31:01.228Z,54.43
2019-03-09T05:33:34.069Z,55.37
2019-03-09T05:36:06.998Z,56.59
2019-03-09T05:38:40.319Z,57.18
2019-03-09T05:41:16.364Z,58.80
2019-03-09T05:43:49.330Z,59.11
2019-03-09T05:46:22.359Z,60.16
2019-03-09T05:48:55.326Z,60.73
2019-03-09T05:51:29.239Z,62.79
2019-03-09T05:54:02.375Z,67.10
2019-03-09T05:56:35.325Z,58.82
2019-03-09T05:59:09.497Z,55.08
2019-03-09T06:01:42.371Z,54.47
2019-03-09T06:04:15.279Z,54.96
2019-03-09T06:06:48.096Z,55.69
2019-03-09T06:09:23.148Z,56.93
2019-03-09T06:11:56.071Z,57.73
2019-03-09T06:14:29.242Z,58.93
2019-03-09T06:17:02.186Z,59.09
2019-03-09T06:19:35.029Z,61.84
2019-03-09T06:22:07.929Z,60.94
2019-03-09T06:24:40.654Z,63.19
2019-03-09T06:27:13.643Z,64.41
2019-03-09T06:29:46.690Z,59.20
2019-03-09T06:33:13.166Z,52.56
2019-03-09T06:36:12.110Z,53.38
2019-03-09T06:38:58.928Z,54.35
2019-03-09T06:42:19.194Z,55.11
2019-03-09T06:44:52.062Z,56.34
2019-03-09T06:47:24.848Z,57.84
2019-03-09T06:49:57.627Z,58.18
2019-03-09T06:52:30.362Z,59.06
2019-03-09T06:55:04.201Z,60.54
2019-03-09T06:57:36.952Z,60.99
2019-03-09T07:00:34.596Z,61.92
2019-03-09T07:03:08.571Z,62.53
2019-03-09T07:05:41.304Z,63.84
2019-03-09T07:08:14.068Z,58.24
2019-03-09T07:10:46.804Z,53.44
2019-03-09T07:13:19.580Z,53.21
2019-03-09T07:15:52.331Z,53.64
2019-03-09T07:18:30.113Z,54.15
2019-03-09T07:21:03.102Z,55.36
2019-03-09T07:23:36.000Z,56.44
2019-03-09T07:26:08.887Z,56.99
2019-03-09T07:28:41.640Z,57.45
2019-03-09T07:31:14.586Z,58.66
2019-03-09T07:33:47.375Z,59.48
2019-03-09T07:36:20.209Z,59.96
2019-03-09T07:38:53.047Z,60.51
2019-03-09T07:41:25.973Z,61.05
2019-03-09T07:43:58.878Z,61.35
2019-03-09T07:46:31.824Z,61.56
2019-03-09T07:49:04.847Z,61.61
2019-03-09T07:51:37.605Z,62.18
2019-03-09T07:54:10.427Z,62.21
2019-03-09T07:56:45.473Z,62.59
2019-03-09T07:59:18.272Z,63.13
2019-03-09T08:01:51.033Z,58.82
2019-03-09T08:04:24.019Z,51.93
2019-03-09T08:06:56.880Z,51.88
2019-03-09T08:09:29.690Z,52.82
2019-03-09T08:12:02.492Z,52.54
2019-03-09T08:14:36.311Z,54.25
2019-03-09T08:17:09.209Z,55.36
2019-03-09T08:19:41.919Z,56.00
2019-03-09T08:22:14.684Z,56.64
2019-03-09T08:24:47.504Z,57.84
2019-03-09T08:27:20.214Z,58.37
2019-03-09T08:29:53.172Z,59.66
2019-03-09T08:32:26.313Z,59.58
2019-03-09T08:34:59.170Z,60.66
2019-03-09T08:37:32.006Z,61.66
2019-03-09T08:40:04.805Z,61.86
2019-03-09T08:42:37.606Z,65.80
2019-03-09T08:45:11.319Z,62.20
2019-03-09T08:47:51.520Z,53.61
2019-03-09T08:50:21.121Z,54.27
2019-03-09T08:52:53.905Z,55.05
2019-03-09T08:55:28.415Z,56.58
2019-03-09T08:58:01.350Z,57.81
2019-03-09T09:00:35.095Z,58.70
2019-03-09T09:03:08.030Z,60.47
2019-03-09T09:05:40.895Z,61.50
2019-03-09T09:08:13.803Z,63.44
2019-03-09T09:10:46.840Z,63.57
2019-03-09T09:13:19.671Z,55.57
2019-03-09T09:15:52.479Z,51.88
2019-03-09T09:18:25.616Z,53.38
2019-03-09T09:20:58.528Z,54.34
2019-03-09T09:23:32.461Z,56.74
2019-03-09T09:26:05.236Z,58.19
2019-03-09T09:28:38.021Z,59.92
2019-03-09T09:31:10.819Z,61.09
2019-03-09T09:33:43.678Z,62.25
2019-03-09T09:36:16.673Z,64.83
2019-03-09T09:38:49.525Z,63.20
2019-03-09T09:41:22.393Z,56.10
2019-03-09T09:43:55.328Z,52.32
2019-03-09T09:46:39.399Z,53.45
2019-03-09T09:49:12.244Z,55.03
2019-03-09T09:51:45.044Z,56.30
2019-03-09T09:54:17.841Z,58.84
2019-03-09T09:56:50.737Z,60.66
2019-03-09T09:59:23.547Z,61.31
2019-03-09T10:02:05.236Z,62.60
2019-03-09T10:04:38.051Z,60.66
2019-03-09T10:07:10.815Z,54.63
2019-03-09T10:09:43.600Z,53.71
2019-03-09T10:12:16.329Z,55.15
2019-03-09T10:14:49.159Z,57.14
2019-03-09T10:17:21.892Z,59.40
2019-03-09T10:19:57.424Z,61.57
2019-03-09T10:22:30.473Z,62.36
2019-03-09T10:25:06.917Z,63.16
2019-03-09T10:27:39.824Z,54.28
2019-03-09T10:30:16.213Z,53.37
2019-03-09T10:32:49.456Z,55.39
2019-03-09T10:35:23.628Z,57.35
2019-03-09T10:37:56.672Z,59.16
2019-03-09T10:40:29.744Z,60.13
2019-03-09T10:43:02.625Z,62.42
2019-03-09T10:45:35.561Z,64.20
2019-03-09T10:48:08.425Z,63.28
2019-03-09T10:50:41.395Z,55.06
2019-03-09T10:53:14.189Z,56.12
2019-03-09T10:55:47.059Z,58.37
2019-03-09T10:58:19.629Z,59.10
2019-03-09T11:00:54.590Z,59.92
2019-03-09T11:03:27.539Z,61.90
2019-03-09T11:06:00.357Z,63.13
2019-03-09T11:08:36.130Z,61.48
2019-03-09T11:11:09.040Z,54.05
2019-03-09T11:13:51.418Z,53.18
2019-03-09T11:16:16.473Z,56.09
2019-03-09T11:18:49.560Z,56.99
2019-03-09T11:21:23.648Z,58.88
2019-03-09T11:23:56.634Z,61.54
2019-03-09T11:26:32.081Z,61.21
2019-03-09T11:29:05.089Z,61.89
2019-03-09T11:31:37.974Z,62.91
2019-03-09T11:34:10.978Z,63.58
2019-03-09T11:36:43.634Z,54.54
2019-03-09T11:39:16.397Z,54.86
2019-03-09T11:41:49.225Z,55.88
2019-03-09T11:44:22.039Z,57.53
2019-03-09T11:46:54.792Z,59.25
2019-03-09T11:49:27.577Z,59.95
2019-03-09T11:52:00.380Z,60.83
2019-03-09T11:54:33.190Z,61.41
2019-03-09T11:57:05.937Z,60.87
2019-03-09T11:59:38.854Z,60.50
2019-03-09T12:02:11.725Z,61.59
2019-03-09T12:04:47.050Z,62.13
2019-03-09T12:07:19.003Z,58.02
2019-03-09T12:09:51.749Z,57.78
2019-03-09T12:12:24.495Z,58.71
2019-03-09T12:14:57.365Z,58.75
2019-03-09T12:17:30.414Z,57.23
2019-03-09T12:20:03.314Z,56.28
2019-03-09T12:22:36.182Z,57.77
2019-03-09T12:25:10.118Z,56.78
2019-03-09T12:27:43.790Z,56.19
2019-03-09T12:30:18.101Z,56.37
2019-03-09T12:32:51.062Z,53.98
2019-03-09T12:35:23.988Z,53.68
2019-03-09T12:37:56.971Z,50.23
2019-03-09T12:40:29.855Z,49.85
2019-03-09T12:43:05.641Z,50.03
2019-03-09T12:45:42.749Z,50.68
2019-03-09T12:48:15.590Z,52.10
2019-03-09T12:50:48.696Z,53.65
2019-03-09T12:53:29.467Z,52.56
2019-03-09T12:56:06.984Z,52.80
2019-03-09T12:58:39.686Z,52.92
2019-03-09T13:01:12.720Z,52.49
2019-03-09T13:03:45.562Z,50.29
2019-03-09T13:06:21.532Z,50.51
2019-03-09T13:08:54.329Z,50.10
2019-03-09T13:11:27.419Z,49.05
2019-03-09T13:14:00.321Z,47.81
2019-03-09T13:16:33.299Z,48.62
2019-03-09T13:19:07.443Z,50.04
2019-03-09T13:21:40.432Z,47.16
2019-03-09T13:24:13.463Z,47.17
2019-03-09T13:26:46.305Z,47.90
2019-03-09T13:29:19.607Z,45.35
2019-03-09T13:31:52.710Z,46.92
2019-03-09T13:34:25.717Z,46.69
2019-03-09T13:36:58.732Z,47.22
2019-03-09T13:39:31.608Z,47.28
2019-03-09T13:42:04.628Z,47.36
2019-03-09T13:44:37.849Z,47.82
2019-03-09T13:47:10.781Z,47.73
2019-03-09T13:49:43.811Z,47.25
2019-03-09T13:52:17.643Z,46.89
2019-03-09T13:54:50.736Z,47.19
2019-03-09T13:57:25.573Z,48.07
2019-03-09T13:59:59.198Z,46.33
2019-03-09T14:02:32.258Z,46.79
2019-03-09T14:05:05.407Z,46.04
2019-03-09T14:07:38.846Z,47.91
2019-03-09T14:10:12.904Z,48.06
2019-03-09T14:12:45.997Z,48.96
2019-03-09T14:15:23.214Z,49.44
2019-03-09T14:17:58.668Z,49.49
2019-03-09T14:20:35.629Z,48.31
2019-03-09T14:23:09.134Z,49.04
2019-03-09T14:25:41.986Z,49.39
2019-03-09T14:28:19.912Z,49.16
2019-03-09T14:31:01.141Z,49.27
2019-03-09T14:33:35.545Z,49.85
2019-03-09T14:36:08.481Z,50.30
2019-03-09T14:38:44.331Z,50.77
2019-03-09T14:41:17.208Z,51.84
2019-03-09T14:43:54.318Z,51.55
2019-03-09T14:46:28.774Z,51.74
2019-03-09T14:49:01.881Z,51.53
2019-03-09T14:51:35.040Z,52.14
2019-03-09T14:54:08.076Z,52.13
2019-03-09T14:56:42.215Z,52.75
2019-03-09T14:59:15.183Z,52.99
2019-03-09T15:02:03.658Z,52.96
2019-03-09T15:04:37.644Z,53.42
2019-03-09T15:07:14.571Z,53.91
2019-03-09T15:09:47.850Z,53.38
2019-03-09T15:12:20.852Z,53.07
2019-03-09T15:14:58.800Z,52.87
2019-03-09T15:17:32.204Z,53.14
2019-03-09T15:20:06.906Z,53.42
2019-03-09T15:22:39.742Z,53.33
2019-03-09T15:25:15.239Z,52.84
2019-03-09T15:27:53.249Z,52.25
2019-03-09T15:30:31.060Z,52.56
2019-03-09T15:33:06.936Z,52.87
2019-03-09T15:35:43.404Z,52.99
2019-03-09T15:38:22.322Z,54.04
2019-03-09T15:41:06.069Z,53.92
2019-03-09T15:43:38.906Z,54.42
2019-03-09T15:46:17.210Z,54.17
2019-03-09T15:48:54.544Z,54.35
2019-03-09T15:51:27.604Z,57.89
2019-03-09T15:54:00.517Z,57.95
2019-03-09T15:56:33.403Z,56.03
2019-03-09T15:59:06.449Z,55.60
2019-03-09T16:01:39.375Z,55.32
2019-03-09T16:04:12.345Z,55.20
2019-03-09T16:06:45.172Z,54.89
2019-03-09T16:09:18.154Z,55.26
2019-03-09T16:11:50.983Z,55.40
2019-03-09T16:14:24.022Z,55.43
2019-03-09T16:16:56.887Z,55.98
2019-03-09T16:19:30.845Z,55.64
2019-03-09T16:22:04.030Z,55.62
2019-03-09T16:24:37.056Z,55.87
2019-03-09T16:27:29.555Z,56.41
2019-03-09T16:30:07.111Z,57.02
2019-03-09T16:32:41.507Z,57.48
2019-03-09T16:35:14.745Z,57.75
2019-03-09T16:37:55.104Z,57.97
2019-03-09T16:41:12.301Z,58.05
2019-03-09T16:43:58.817Z,58.68
2019-03-09T16:46:39.776Z,58.67
2019-03-09T16:49:14.305Z,58.67
2019-03-09T16:51:47.618Z,59.10
2019-03-09T16:54:20.541Z,59.41
2019-03-09T16:56:53.364Z,59.65
2019-03-09T16:59:26.723Z,59.45
2019-03-09T17:01:59.587Z,59.52
2019-03-09T17:04:32.512Z,59.62
2019-03-09T17:07:09.753Z,59.69
2019-03-09T17:09:44.554Z,59.90
2019-03-09T17:12:21.324Z,61.35
2019-03-09T17:14:54.445Z,60.84
2019-03-09T17:17:27.495Z,60.81
2019-03-09T17:20:01.495Z,61.19
2019-03-09T17:22:37.299Z,61.24
2019-03-09T17:25:15.318Z,61.14
2019-03-09T17:27:51.841Z,61.59
2019-03-09T17:30:38.756Z,61.74
2019-03-09T17:33:15.457Z,61.82
2019-03-09T17:35:49.711Z,62.29
2019-03-09T17:38:28.812Z,62.76
2019-03-09T17:41:03.138Z,65.12
2019-03-09T17:43:37.963Z,57.54
2019-03-09T17:46:13.203Z,52.08
2019-03-09T17:48:48.511Z,48.26
2019-03-09T17:51:21.819Z,49.59
2019-03-09T17:53:55.143Z,51.36
2019-03-09T17:56:31.277Z,52.74
2019-03-09T17:59:07.044Z,54.09
2019-03-09T18:01:45.510Z,55.43
2019-03-09T18:04:18.816Z,56.20
2019-03-09T18:06:54.301Z,57.59
2019-03-09T18:09:28.796Z,58.89
2019-03-09T18:12:03.080Z,61.16
2019-03-09T18:14:36.897Z,61.24
2019-03-09T18:17:09.775Z,62.51
2019-03-09T18:19:43.894Z,64.75
2019-03-09T18:22:16.928Z,58.10
2019-03-09T18:24:53.719Z,53.84
2019-03-09T18:27:26.915Z,55.59
2019-03-09T18:30:00.026Z,56.07
2019-03-09T18:32:34.173Z,54.70
2019-03-09T18:35:07.432Z,56.06
2019-03-09T18:37:41.917Z,58.62
2019-03-09T18:40:14.999Z,60.51
2019-03-09T18:42:47.890Z,61.30
2019-03-09T18:45:20.955Z,63.25
2019-03-09T18:47:53.934Z,66.58
2019-03-09T18:50:27.273Z,60.69
2019-03-09T18:53:00.953Z,56.82
2019-03-09T18:55:34.034Z,51.34
2019-03-09T18:58:08.714Z,51.38
2019-03-09T19:00:41.621Z,51.29
2019-03-09T19:03:14.490Z,52.33
2019-03-09T19:05:50.308Z,53.02
2019-03-09T19:08:23.480Z,56.14
2019-03-09T19:10:56.489Z,58.74
2019-03-09T19:13:30.173Z,58.96
2019-03-09T19:16:03.527Z,61.01
2019-03-09T19:18:36.431Z,62.96
2019-03-09T19:21:09.660Z,65.24
2019-03-09T19:23:51.804Z,57.02
2019-03-09T19:26:24.919Z,53.00
2019-03-09T19:28:57.875Z,53.15
2019-03-09T19:31:34.320Z,55.45
2019-03-09T19:34:07.849Z,56.43
2019-03-09T19:36:48.784Z,58.20
2019-03-09T19:39:23.302Z,60.23
2019-03-09T19:42:44.435Z,60.09
2019-03-09T19:45:17.836Z,60.92
2019-03-09T19:47:50.826Z,62.89
2019-03-09T19:50:23.795Z,64.71
2019-03-09T19:52:59.118Z,59.33
2019-03-09T19:55:32.763Z,55.74
2019-03-09T19:58:06.638Z,55.68
2019-03-09T20:00:39.748Z,56.67
2019-03-09T20:03:14.320Z,57.98
2019-03-09T20:05:50.324Z,59.36
2019-03-09T20:08:52.291Z,59.86
2019-03-09T20:11:36.219Z,63.17
2019-03-09T20:14:09.282Z,64.66
2019-03-09T20:16:52.556Z,58.86
2019-03-09T20:19:25.544Z,54.28
2019-03-09T20:21:58.328Z,55.00
2019-03-09T20:24:31.415Z,56.01
2019-03-09T20:27:04.421Z,57.58
2019-03-09T20:29:37.631Z,58.97
2019-03-09T20:32:10.593Z,60.26
2019-03-09T20:34:43.514Z,61.47
2019-03-09T20:37:16.507Z,62.70
2019-03-09T20:39:49.692Z,65.95
2019-03-09T20:42:23.328Z,58.78
2019-03-09T20:44:56.399Z,54.29
2019-03-09T20:47:29.479Z,55.12
2019-03-09T20:50:02.620Z,55.74
2019-03-09T20:52:42.273Z,57.43
2019-03-09T20:55:16.970Z,58.65
2019-03-09T20:57:50.546Z,60.44
2019-03-09T21:00:32.081Z,61.70
2019-03-09T21:03:22.686Z,62.85
2019-03-09T21:06:13.153Z,66.16
2019-03-09T21:08:58.330Z,57.65
2019-03-09T21:11:40.413Z,53.40
2019-03-09T21:14:13.479Z,54.98
2019-03-09T21:16:47.167Z,55.88
2019-03-09T21:19:20.532Z,57.27
2019-03-09T21:21:54.116Z,58.72
2019-03-09T21:24:33.653Z,60.20
2019-03-09T21:27:07.090Z,61.71
2019-03-09T21:29:40.426Z,63.36
2019-03-09T21:32:15.193Z,63.84
2019-03-09T21:34:53.225Z,57.22
2019-03-09T21:37:38.473Z,54.02
2019-03-09T21:40:24.383Z,55.65
2019-03-09T21:43:33.964Z,57.76
2019-03-09T21:46:07.108Z,59.53
2019-03-09T21:48:40.261Z,61.42
2019-03-09T21:54:17.897Z,62.53
2019-03-09T21:57:01.761Z,54.99
2019-03-09T21:59:40.320Z,52.88
2019-03-09T22:02:28.806Z,54.38
2019-03-09T22:05:20.013Z,56.91
2019-03-09T22:08:03.280Z,58.30
2019-03-09T22:10:37.668Z,60.40
2019-03-09T22:13:12.776Z,62.08
2019-03-09T22:15:46.617Z,64.77
2019-03-09T22:18:25.356Z,58.74
2019-03-09T22:21:00.014Z,55.11
2019-03-09T22:23:43.551Z,55.95
2019-03-09T22:26:08.838Z,58.12
2019-03-09T22:28:42.181Z,59.33
2019-03-09T22:31:18.977Z,61.64
2019-03-09T22:33:53.504Z,62.80
2019-03-09T22:36:27.961Z,63.36
2019-03-09T22:39:05.097Z,54.60
2019-03-09T22:41:49.883Z,54.86
2019-03-09T22:44:27.473Z,56.78
2019-03-09T22:47:11.944Z,58.46
2019-03-09T22:49:43.743Z,60.00
2019-03-09T22:52:22.454Z,61.45
2019-03-09T22:55:07.403Z,62.41
2019-03-09T22:57:42.312Z,61.21
2019-03-09T23:00:22.538Z,52.81
2019-03-09T23:02:57.584Z,53.11
2019-03-09T23:05:31.270Z,55.55
2019-03-09T23:08:05.051Z,57.85
2019-03-09T23:10:39.253Z,59.23
2019-03-09T23:13:13.013Z,61.11
2019-03-09T23:15:47.092Z,63.01
2019-03-09T23:18:20.274Z,63.23
2019-03-09T23:20:53.804Z,53.92
2019-03-09T23:23:28.564Z,53.05
2019-03-09T23:26:10.202Z,54.73
2019-03-09T23:29:10.520Z,56.28
2019-03-09T23:31:44.787Z,56.54
2019-03-09T23:34:18.654Z,56.49
2019-03-09T23:36:59.770Z,56.27
2019-03-09T23:39:37.468Z,57.39
2019-03-09T23:42:14.157Z,58.85
2019-03-09T23:44:56.287Z,60.08
2019-03-09T23:47:33.330Z,61.44
2019-03-09T23:50:12.923Z,62.74
2019-03-09T23:52:55.321Z,61.16
2019-03-09T23:55:29.385Z,51.96
2019-03-09T23:58:06.309Z,53.03
